Latest Weather Observations for Oodnadatta

IDS60801

Issued at 12:31 pm CDT Friday 23 February 2018 (issued every 30 minutes, with the page automatically refreshed every 10 minutes)

About weather observations | Map of weather stations | Latest weather observations for SA | Other Formats
Station Details ID: 017043 Name: OODNADATTA AIRPORT Lat: -27.56 Lon: 135.45 Height: 116.5 m
Data from the previous 72 hours. | See also: Recent months at Oodnadatta
Date/Time
CDT
Temp
°C
App
Temp
°C
Dew
Point
°C
Rel
Hum
%
Delta-T
°C
Wind Press
QNH
hPa
Press
MSL
hPa
Rain since
9am
mm
Dir  Spd
km/h
Gust
km/h
Spd
kts
Gust
kts
23/12:30pm 31.3 28.2 15.7 39 9.7 SSW 26 39 14 21 1007.4 1006.6 0.0
23/12:00pm 30.2 27.2 15.9 42 8.9 SSW 26 39 14 21 1007.6 1006.8 0.0
23/11:30am 29.4 26.0 15.9 44 8.4 SSW 28 39 15 21 1008.0 1007.2 0.0
23/11:00am 28.6 25.7 16.2 47 7.7 SSW 26 33 14 18 1008.2 1007.4 0.0
23/10:30am 28.2 25.5 16.5 49 7.3 SSW 26 33 14 18 1008.3 1007.5 0.0
23/10:00am 26.9 23.3 16.2 52 6.6 SSW 30 37 16 20 1008.3 1007.5 0.0
23/09:30am 26.8 23.0 16.7 54 6.3 SSW 32 39 17 21 1008.1 1007.3 0.0
23/09:00am 25.7 22.1 16.3 56 5.8 SW 30 37 16 20 1008.0 1007.2 0.0
23/08:30am 25.5 21.6 16.4 57 5.6 SW 32 39 17 21 1007.7 1006.9 0.0
23/08:00am 25.3 22.9 16.4 57 5.5 SSW 24 32 13 17 1007.4 1006.6 0.0
23/07:30am 25.2 22.8 16.4 58 5.4 SSW 24 33 13 18 1006.7 1005.9 0.0
23/07:00am 25.4 22.2 16.3 57 5.6 SSW 28 35 15 19 1006.5 1005.7 0.0
23/06:30am 25.8 22.6 16.4 56 5.8 SSW 28 35 15 19 1006.1 1005.3 0.0
23/06:00am 26.2 23.2 16.7 56 5.9 SSW 28 33 15 18 1005.8 1005.0 0.0
23/05:30am 26.6 22.6 16.8 55 6.1 SSW 33 41 18 22 1005.4 1004.6 0.0
23/05:00am 27.1 23.4 17.0 54 6.3 SSW 32 37 17 20 1005.1 1004.3 0.0
23/04:30am 27.5 23.6 16.5 51 6.9 SSW 32 39 17 21 1004.8 1004.0 0.0
23/04:00am 28.1 24.3 16.7 50 7.1 SSW 32 39 17 21 1004.6 1003.8 0.0
23/03:30am 28.5 24.9 17.1 50 7.2 SSW 32 43 17 23 1004.4 1003.6 0.0
23/03:00am 29.0 25.8 17.2 49 7.5 SSW 30 41 16 22 1004.3 1003.5 0.0
23/02:30am 29.4 25.7 16.9 47 7.9 SSW 32 41 17 22 1004.3 1003.5 0.0
23/02:00am 29.9 26.0 17.0 45 8.2 SSW 33 44 18 24 1004.1 1003.3 0.0
23/01:30am 30.6 26.7 17.0 44 8.7 SSW 33 43 18 23 1004.1 1003.3 0.0
23/01:00am 31.3 27.1 17.2 42 9.0 SW 35 44 19 24 1004.1 1003.3 0.0
23/12:30am 32.5 27.7 17.5 40 9.7 SSW 39 48 21 26 1003.3 1002.5 0.0
23/12:00am 33.1 28.0 17.7 40 10.0 SSW 41 54 22 29 1003.3 1002.5 0.0
 
Date/Time
CDT
Temp
°C
App
Temp
°C
Dew
Point
°C
Rel
Hum
%
Delta-T
°C
Wind Press
QNH
hPa
Press
MSL
hPa
Rain since
9am
mm
Dir  Spd
km/h
Gust
km/h
Spd
kts
Gust
kts
22/11:39pm 34.2 30.9 17.0 36 11.0 SW 30 54 16 29 1003.1 1002.3 0.0
22/11:30pm 35.8 32.1 15.0 29 13.1 W 28 37 15 20 1003.1 1002.3 0.0
22/11:00pm 36.7 34.5 12.2 23 14.8 WNW 15 26 8 14 1002.4 1001.6 0.0
22/10:30pm 37.3 35.4 10.6 20 15.9 NE 11 13 6 7 1001.6 1000.7 0.0
22/10:00pm 37.3 34.7 10.6 20 15.8 NE 15 17 8 9 1000.9 1000.1 0.0
22/09:30pm 38.2 34.6 10.5 19 16.5 NE 20 24 11 13 1000.5 999.7 0.0
22/09:00pm 38.5 35.5 10.8 19 16.6 NE 17 22 9 12 1000.3 999.5 0.0
22/08:30pm 39.0 35.6 10.4 18 17.1 NE 19 24 10 13 1000.1 999.3 0.0
22/08:00pm 39.5 37.3 10.8 18 17.2 NNE 13 19 7 10 1000.1 999.3 0.0
22/07:30pm 40.1 38.6 10.4 17 17.8 NE 9 15 5 8 1000.1 999.3 0.0
22/07:00pm 40.3 37.3 10.6 17 17.8 N 17 22 9 12 1000.1 999.3 0.0
22/06:30pm 40.6 38.4 10.8 17 18.0 ENE 13 20 7 11 1000.0 999.2 0.0
22/06:00pm 41.7 39.1 10.8 16 18.7 NE 15 24 8 13 1000.0 999.2 0.0
22/05:30pm 40.3 37.7 10.6 17 17.9 N 15 24 8 13 1000.0 999.2 0.0
22/05:00pm 40.3 37.7 10.6 17 17.8 NNE 15 26 8 14 999.9 999.1 0.0
22/04:30pm 40.9 39.5 11.0 17 18.1 NE 9 19 5 10 1000.1 999.3 0.0
22/04:00pm 40.3 36.9 10.6 17 17.8 NNE 19 28 10 15 1000.5 999.7 0.0
22/03:30pm 40.4 37.0 10.6 17 17.9 N 19 28 10 15 1000.9 1000.1 0.0
22/03:00pm 41.0 38.8 12.0 18 17.8 NNW 15 30 8 16 1001.3 1000.5 0.0
22/02:30pm 40.0 36.6 11.2 18 17.4 N 20 30 11 16 1002.0 1001.2 0.0
22/02:00pm 38.6 36.3 11.6 20 16.3 NNE 15 24 8 13 1002.6 1001.8 0.0
22/01:30pm 37.7 34.4 10.9 20 16.0 NNE 19 32 10 17 1003.2 1002.4 0.0
22/01:00pm 38.4 35.6 11.5 20 16.2 N 17 32 9 17 1003.7 1002.9 0.0
22/12:30pm 37.3 33.7 12.0 22 15.3 N 22 35 12 19 1004.0 1003.2 0.0
22/12:00pm 36.0 32.2 12.3 24 14.3 NNE 24 37 13 20 1004.4 1003.6 0.0
22/11:30am 34.9 30.7 12.5 25 13.5 NNE 26 35 14 19 1004.8 1004.0 0.0
22/11:00am 35.4 31.4 13.0 26 13.6 NNE 26 37 14 20 1004.9 1004.1 0.0
22/10:30am 34.5 30.1 12.8 27 13.2 NNE 28 41 15 22 1005.2 1004.4 0.0
22/10:00am 33.8 28.9 12.7 27 12.7 NNE 30 43 16 23 1005.2 1004.4 0.0
22/09:30am 32.7 27.0 12.9 30 11.9 NNE 35 43 19 23 1005.1 1004.3 0.0
22/09:00am 31.8 26.5 12.6 31 11.5 NNE 32 43 17 23 1005.1 1004.3 0.0
22/08:30am 30.8 26.2 12.2 32 11.0 NE 28 37 15 20 1005.0 1004.2 0.0
22/08:00am 29.7 26.2 12.2 34 10.3 NE 22 30 12 16 1004.8 1004.0 0.0
22/07:30am 29.1 25.6 12.1 35 10.0 NE 22 28 12 15 1004.6 1003.8 0.0
22/07:00am 29.5 25.6 12.0 34 10.2 NE 24 32 13 17 1004.2 1003.4 0.0
22/06:30am 29.7 25.8 12.2 34 10.3 NE 24 32 13 17 1004.0 1003.2 0.0
22/06:00am 30.1 25.8 12.1 33 10.6 NE 26 35 14 19 1003.6 1002.8 0.0
22/05:30am 30.3 26.0 12.2 33 10.7 ENE 26 35 14 19 1003.5 1002.7 0.0
22/05:00am 30.6 25.5 12.0 32 10.9 ENE 30 39 16 21 1003.1 1002.3 0.0
22/04:30am 31.0 25.9 11.9 31 11.3 ENE 30 39 16 21 1003.4 1002.6 0.0
22/04:00am 31.3 26.0 11.1 29 11.7 ENE 30 37 16 20 1003.4 1002.6 0.0
22/03:30am 31.5 25.9 10.2 27 12.3 ENE 30 39 16 21 1003.2 1002.4 0.0
22/03:00am 31.8 26.7 10.5 27 12.3 ENE 28 37 15 20 1003.1 1002.3 0.0
22/02:30am 31.9 25.7 9.4 25 12.8 ENE 32 35 17 19 1003.0 1002.2 0.0
22/02:00am 32.2 26.5 8.4 23 13.3 ENE 28 35 15 19 1003.2 1002.4 0.0
22/01:30am 31.9 27.7 7.5 22 13.5 E 19 24 10 13 1003.9 1003.1 0.0
22/01:00am 31.9 28.5 7.5 22 13.4 E 15 19 8 10 1004.1 1003.3 0.0
22/12:30am 32.4 28.9 7.3 21 13.9 ENE 15 17 8 9 1004.3 1003.5 0.0
22/12:00am 33.4 29.6 7.4 20 14.4 E 17 20 9 11 1004.3 1003.5 0.0
 
Date/Time
CDT
Temp
°C
App
Temp
°C
Dew
Point
°C
Rel
Hum
%
Delta-T
°C
Wind Press
QNH
hPa
Press
MSL
hPa
Rain since
9am
mm
Dir  Spd
km/h
Gust
km/h
Spd
kts
Gust
kts
21/11:30pm 34.0 29.5 7.1 19 14.9 ENE 20 28 11 15 1004.1 1003.3 0.0
21/11:00pm 34.5 29.4 7.5 19 15.1 E 24 30 13 16 1003.8 1003.0 0.0
21/10:30pm 35.1 29.5 7.2 18 15.6 E 26 33 14 18 1003.6 1002.8 0.0
21/10:00pm 35.7 30.0 6.9 17 16.0 E 26 35 14 19 1003.6 1002.8 0.0
21/09:30pm 36.2 30.2 5.5 15 16.8 E 26 33 14 18 1003.3 1002.5 0.0
21/09:00pm 36.8 31.3 5.9 15 17.1 E 24 32 13 17 1003.0 1002.2 0.0
21/08:30pm 37.4 32.4 6.4 15 17.3 E 22 30 12 16 1002.6 1001.8 0.0
21/08:00pm 38.1 33.6 7.0 15 17.5 E 20 28 11 15 1002.5 1001.7 0.0
21/07:30pm 39.2 34.9 6.8 14 18.4 ENE 19 30 10 16 1002.2 1001.4 0.0
21/07:00pm 39.4 35.9 7.0 14 18.3 E 15 20 8 11 1001.9 1001.1 0.0
21/06:30pm 40.2 36.4 7.6 14 18.8 E 17 24 9 13 1001.7 1000.9 0.0
21/06:00pm 40.2 36.0 7.6 14 18.8 ESE 19 32 10 17 1001.7 1000.9 0.0
21/05:30pm 40.3 37.2 8.7 15 18.5 NNE 15 28 8 15 1001.9 1001.1 0.0
21/05:00pm 39.6 35.6 9.1 16 17.8 E 20 33 11 18 1002.1 1001.3 0.0
21/04:30pm 40.7 36.7 9.0 15 18.7 ENE 20 33 11 18 1002.3 1001.5 0.0
21/04:00pm 39.8 36.4 9.2 16 17.9 ENE 17 32 9 17 1002.8 1002.0 0.0
21/03:30pm 39.9 36.2 9.3 16 18.0 ENE 19 33 10 18 1003.2 1002.4 0.0
21/03:00pm 39.7 35.7 9.2 16 17.9 ENE 20 39 11 21 1003.6 1002.8 0.0
21/02:30pm 39.6 35.1 10.0 17 17.6 E 24 35 13 19 1004.0 1003.2 0.0
21/02:00pm 38.5 34.8 10.0 18 16.8 E 20 32 11 17 1004.5 1003.7 0.0
21/01:30pm 39.4 35.5 10.7 18 17.2 ENE 22 37 12 20 1004.9 1004.1 0.0
21/01:00pm 38.5 34.4 11.5 20 16.3 NE 24 37 13 20 1005.4 1004.6 0.0
21/12:30pm 37.7 33.3 11.6 21 15.7 NE 26 41 14 22 1005.8 1005.0 0.0
21/12:00pm 37.1 32.9 12.5 23 15.0 NE 26 39 14 21 1006.3 1005.5 0.0
21/11:30am 37.0 32.9 13.7 25 14.4 NE 28 39 15 21 1006.5 1005.7 0.0
21/11:00am 35.5 30.9 13.6 26 13.4 NE 30 39 16 21 1006.9 1006.1 0.0
21/10:30am 35.2 30.0 13.4 27 13.4 NE 33 48 18 26 1007.2 1006.4 0.0
21/10:00am 34.2 28.1 14.1 29 12.4 NE 39 48 21 26 1007.1 1006.3 0.0
21/09:30am 33.6 27.1 14.1 30 12.0 NE 41 52 22 28 1006.2 1005.4 0.0
21/09:00am 33.0 27.9 13.6 31 11.8 ENE 33 41 18 22 1005.7 1004.9 0.0
21/08:30am 31.7 26.4 12.5 31 11.5 ENE 32 41 17 22 1005.6 1004.8 0.0
21/08:00am 30.5 26.3 11.0 30 11.3 ENE 24 32 13 17 1005.4 1004.6 0.0
21/07:30am 29.8 25.5 9.3 28 11.5 ENE 22 30 12 16 1005.0 1004.2 0.0
21/07:00am 30.1 25.4 9.1 27 11.8 E 24 33 13 18 1004.8 1004.0 0.0
21/06:30am 29.8 26.8 9.3 28 11.5 E 15 22 8 12 1004.6 1003.8 0.0
21/06:00am 27.7 24.7 7.5 28 10.9 E 13 15 7 8 1004.0 1003.2 0.0
21/05:30am 27.4 25.1 5.6 25 11.4 E 7 9 4 5 1004.0 1003.2 0.0
21/05:00am 28.0 24.5 5.6 24 11.7 ESE 13 15 7 8 1003.8 1003.0 0.0
21/04:30am 29.2 25.1 6.0 23 12.3 ESE 17 19 9 10 1003.6 1002.8 0.0
21/04:00am 29.4 25.7 6.1 23 12.4 E 15 17 8 9 1003.7 1002.9 0.0
21/03:30am 29.1 25.7 5.9 23 12.3 ESE 13 15 7 8 1003.9 1003.1 0.0
21/03:00am 30.2 29.3 6.1 22 12.9 CALM 0 0 0 0 1004.1 1003.3 0.0
21/02:30am 30.4 29.4 5.6 21 13.2 CALM 0 0 0 0 1004.3 1003.5 0.0
21/02:00am 31.6 27.7 5.2 19 14.0 E 15 17 8 9 1004.1 1003.3 0.0
21/01:30am 32.8 28.2 5.4 18 14.7 E 19 22 10 12 1004.5 1003.7 0.0
21/01:00am 33.5 27.5 5.1 17 15.2 E 26 33 14 18 1004.8 1004.0 0.0
21/12:30am 33.6 27.6 5.2 17 15.3 ESE 26 32 14 17 1004.9 1004.1 0.0
21/12:00am 34.1 27.6 4.7 16 15.7 ESE 28 35 15 19 1004.9 1004.1 0.0
 
Date/Time
CDT
Temp
°C
App
Temp
°C
Dew
Point
°C
Rel
Hum
%
Delta-T
°C
Wind Press
QNH
hPa
Press
MSL
hPa
Rain since
9am
mm
Dir  Spd
km/h
Gust
km/h
Spd
kts
Gust
kts
20/11:30pm 34.3 29.2 5.8 17 15.5 ESE 22 30 12 16 1005.3 1004.5 0.0
20/11:00pm 34.7 28.5 6.1 17 15.6 ESE 28 33 15 18 1005.2 1004.4 0.0
20/10:30pm 35.1 28.6 6.4 17 15.8 ESE 30 39 16 21 1005.0 1004.2 0.0
20/10:00pm 35.8 29.0 7.0 17 16.0 ESE 32 41 17 22 1004.8 1004.0 0.0
20/09:30pm 36.5 31.7 7.5 17 16.4 ESE 22 28 12 15 1004.5 1003.7 0.0
20/09:00pm 37.3 32.3 8.2 17 16.7 ESE 24 32 13 17 1004.3 1003.5 0.0
20/08:30pm 37.8 33.9 9.4 18 16.6 SE 20 28 11 15 1003.8 1003.0 0.0
20/08:00pm 38.5 33.6 10.0 18 16.8 SE 26 32 14 17 1003.4 1002.6 0.0
20/07:30pm 39.5 35.3 9.9 17 17.6 SSE 22 32 12 17 1003.2 1002.4 0.0
20/07:00pm 40.2 35.6 9.6 16 18.1 SE 24 35 13 19 1003.1 1002.3 0.0
20/06:30pm 40.1 36.2 8.5 15 18.4 SE 19 28 10 15 1003.2 1002.4 0.0
20/06:00pm 40.2 36.9 9.6 16 18.1 SE 17 26 9 14 1003.3 1002.5 0.0
20/05:30pm 40.1 36.0 8.5 15 18.4 ESE 20 28 11 15 1003.4 1002.6 0.0
20/05:00pm 40.8 37.4 9.1 15 18.6 SSE 17 26 9 14 1003.4 1002.6 0.0
20/04:30pm 40.9 38.7 9.2 15 18.7 S 11 20 6 11 1003.6 1002.8 0.0
20/04:00pm 40.5 38.5 8.8 15 18.5 SSE 9 17 5 9 1003.9 1003.1 0.0
20/03:30pm 39.4 37.1 8.9 16 17.8 S 11 19 6 10 1004.3 1003.5 0.0
20/03:00pm 39.1 37.1 8.7 16 17.7 SSE 9 17 5 9 1004.7 1003.9 0.0
20/02:30pm 39.8 37.2 9.2 16 18.0 E 13 20 7 11 1005.2 1004.4 0.0
20/02:00pm 38.2 35.7 8.0 16 17.3 E 11 24 6 13 1005.7 1004.9 0.0
20/01:30pm 37.8 34.6 8.6 17 16.9 ESE 15 22 8 12 1006.1 1005.3 0.0
20/01:00pm 37.9 36.1 9.5 18 16.6 NE 9 20 5 11 1006.5 1005.7 0.0

Other Formats:

Comma delimited format used in spreadsheet applications
http://www.bom.gov.au/fwo/IDS60801/IDS60801.94476.axf

JavaScript Object Notation format (JSON) in row-major order
http://www.bom.gov.au/fwo/IDS60801/IDS60801.94476.json